sensor_id;sensor_type;location;lat;lon;timestamp;P1;durP1;ratioP1;P2;durP2;ratioP2
8488;SDS011;4281;45.772;12.852;2022-07-23T00:02:22;15.60;;;14.40;;
8488;SDS011;4281;45.772;12.852;2022-07-23T00:07:47;19.03;;;17.40;;
8488;SDS011;4281;45.772;12.852;2022-07-23T00:10:15;19.00;;;16.70;;
8488;SDS011;4281;45.772;12.852;2022-07-23T00:12:44;17.30;;;15.70;;
8488;SDS011;4281;45.772;12.852;2022-07-23T00:15:18;18.73;;;17.23;;
8488;SDS011;4281;45.772;12.852;2022-07-23T00:17:47;18.73;;;17.23;;
8488;SDS011;4281;45.772;12.852;2022-07-23T00:20:15;19.27;;;17.37;;
8488;SDS011;4281;45.772;12.852;2022-07-23T00:22:48;18.10;;;16.40;;
8488;SDS011;4281;45.772;12.852;2022-07-23T00:25:17;18.33;;;16.57;;
8488;SDS011;4281;45.772;12.852;2022-07-23T00:27:56;18.80;;;17.10;;
8488;SDS011;4281;45.772;12.852;2022-07-23T00:30:26;17.77;;;16.30;;
8488;SDS011;4281;45.772;12.852;2022-07-23T00:32:58;19.67;;;18.07;;
8488;SDS011;4281;45.772;12.852;2022-07-23T00:35:28;19.77;;;18.20;;
8488;SDS011;4281;45.772;12.852;2022-07-23T00:37:58;21.10;;;19.20;;
8488;SDS011;4281;45.772;12.852;2022-07-23T00:40:27;21.47;;;19.77;;
8488;SDS011;4281;45.772;12.852;2022-07-23T00:42:58;21.50;;;19.73;;
8488;SDS011;4281;45.772;12.852;2022-07-23T00:46:04;22.67;;;20.77;;
8488;SDS011;4281;45.772;12.852;2022-07-23T00:49:05;25.70;;;23.70;;
8488;SDS011;4281;45.772;12.852;2022-07-23T00:52:06;23.00;;;21.00;;
8488;SDS011;4281;45.772;12.852;2022-07-23T00:55:07;23.03;;;20.97;;
8488;SDS011;4281;45.772;12.852;2022-07-23T00:58:04;23.97;;;21.97;;
8488;SDS011;4281;45.772;12.852;2022-07-23T01:01:01;22.90;;;21.00;;
8488;SDS011;4281;45.772;12.852;2022-07-23T01:03:58;23.60;;;21.50;;
8488;SDS011;4281;45.772;12.852;2022-07-23T01:06:54;22.93;;;21.13;;
8488;SDS011;4281;45.772;12.852;2022-07-23T01:09:24;24.60;;;22.17;;
8488;SDS011;4281;45.772;12.852;2022-07-23T01:11:54;25.27;;;23.00;;
8488;SDS011;4281;45.772;12.852;2022-07-23T01:14:23;24.63;;;22.43;;
8488;SDS011;4281;45.772;12.852;2022-07-23T01:16:53;23.50;;;21.60;;
8488;SDS011;4281;45.772;12.852;2022-07-23T01:19:22;26.70;;;24.33;;
8488;SDS011;4281;45.772;12.852;2022-07-23T01:21:51;27.87;;;25.20;;
8488;SDS011;4281;45.772;12.852;2022-07-23T01:24:22;26.83;;;24.77;;
8488;SDS011;4281;45.772;12.852;2022-07-23T01:26:53;33.50;;;30.70;;
8488;SDS011;4281;45.772;12.852;2022-07-23T01:29:28;33.83;;;31.13;;
8488;SDS011;4281;45.772;12.852;2022-07-23T01:32:29;32.53;;;29.73;;
8488;SDS011;4281;45.772;12.852;2022-07-23T01:35:30;37.67;;;34.50;;
8488;SDS011;4281;45.772;12.852;2022-07-23T01:38:31;37.53;;;34.43;;
8488;SDS011;4281;45.772;12.852;2022-07-23T01:41:35;38.33;;;34.83;;
8488;SDS011;4281;45.772;12.852;2022-07-23T01:44:36;34.73;;;31.67;;
8488;SDS011;4281;45.772;12.852;2022-07-23T01:47:37;33.33;;;30.57;;
8488;SDS011;4281;45.772;12.852;2022-07-23T01:50:41;32.50;;;29.77;;
8488;SDS011;4281;45.772;12.852;2022-07-23T01:53:42;28.67;;;26.20;;
8488;SDS011;4281;45.772;12.852;2022-07-23T01:56:45;30.03;;;27.83;;
8488;SDS011;4281;45.772;12.852;2022-07-23T01:59:47;27.97;;;25.67;;
8488;SDS011;4281;45.772;12.852;2022-07-23T02:02:48;28.53;;;26.30;;
8488;SDS011;4281;45.772;12.852;2022-07-23T02:05:50;26.70;;;24.70;;
8488;SDS011;4281;45.772;12.852;2022-07-23T04:22:24;16.73;;;15.33;;
8488;SDS011;4281;45.772;12.852;2022-07-23T04:25:51;17.00;;;15.40;;
8488;SDS011;4281;45.772;12.852;2022-07-23T04:29:17;15.77;;;14.17;;
8488;SDS011;4281;45.772;12.852;2022-07-23T05:37:59;59.37;;;53.67;;
8488;SDS011;4281;45.772;12.852;2022-07-23T05:40:27;59.73;;;54.40;;
8488;SDS011;4281;45.772;12.852;2022-07-23T05:42:56;60.90;;;55.33;;
8488;SDS011;4281;45.772;12.852;2022-07-23T05:45:25;60.23;;;54.53;;
8488;SDS011;4281;45.772;12.852;2022-07-23T05:47:53;56.53;;;51.33;;
8488;SDS011;4281;45.772;12.852;2022-07-23T05:50:22;58.70;;;52.83;;
8488;SDS011;4281;45.772;12.852;2022-07-23T05:52:51;55.73;;;50.73;;
8488;SDS011;4281;45.772;12.852;2022-07-23T05:55:21;52.20;;;47.43;;
8488;SDS011;4281;45.772;12.852;2022-07-23T05:57:49;53.70;;;48.50;;
8488;SDS011;4281;45.772;12.852;2022-07-23T06:00:18;49.37;;;44.87;;
8488;SDS011;4281;45.772;12.852;2022-07-23T06:02:46;47.80;;;43.60;;
8488;SDS011;4281;45.772;12.852;2022-07-23T06:05:21;46.63;;;41.87;;
8488;SDS011;4281;45.772;12.852;2022-07-23T06:07:49;48.27;;;43.73;;
8488;SDS011;4281;45.772;12.852;2022-07-23T06:10:18;46.43;;;42.37;;
8488;SDS011;4281;45.772;12.852;2022-07-23T06:12:48;46.47;;;42.30;;
8488;SDS011;4281;45.772;12.852;2022-07-23T06:15:16;48.23;;;43.90;;
8488;SDS011;4281;45.772;12.852;2022-07-23T06:17:45;48.47;;;44.00;;
8488;SDS011;4281;45.772;12.852;2022-07-23T06:20:13;45.80;;;41.60;;
8488;SDS011;4281;45.772;12.852;2022-07-23T06:22:42;42.23;;;38.63;;
8488;SDS011;4281;45.772;12.852;2022-07-23T06:25:10;38.57;;;35.07;;
8488;SDS011;4281;45.772;12.852;2022-07-23T06:27:45;36.90;;;33.57;;
8488;SDS011;4281;45.772;12.852;2022-07-23T06:30:15;35.00;;;32.10;;
8488;SDS011;4281;45.772;12.852;2022-07-23T06:32:45;36.93;;;33.53;;
8488;SDS011;4281;45.772;12.852;2022-07-23T06:35:14;34.60;;;31.53;;
8488;SDS011;4281;45.772;12.852;2022-07-23T06:37:44;32.83;;;30.07;;
8488;SDS011;4281;45.772;12.852;2022-07-23T06:40:14;33.07;;;30.47;;
8488;SDS011;4281;45.772;12.852;2022-07-23T06:42:42;31.73;;;28.93;;
8488;SDS011;4281;45.772;12.852;2022-07-23T06:45:11;33.23;;;30.63;;
8488;SDS011;4281;45.772;12.852;2022-07-23T06:47:41;32.20;;;29.50;;
8488;SDS011;4281;45.772;12.852;2022-07-23T06:50:09;31.10;;;28.27;;
8488;SDS011;4281;45.772;12.852;2022-07-23T06:52:38;42.23;;;31.40;;
8488;SDS011;4281;45.772;12.852;2022-07-23T06:55:08;34.13;;;30.90;;
8488;SDS011;4281;45.772;12.852;2022-07-23T06:57:37;39.10;;;35.63;;
8488;SDS011;4281;45.772;12.852;2022-07-23T07:00:06;43.03;;;39.13;;
8488;SDS011;4281;45.772;12.852;2022-07-23T07:02:35;44.73;;;40.83;;
8488;SDS011;4281;45.772;12.852;2022-07-23T07:05:06;38.93;;;35.50;;
8488;SDS011;4281;45.772;12.852;2022-07-23T07:07:35;45.43;;;41.27;;
8488;SDS011;4281;45.772;12.852;2022-07-23T07:10:03;37.93;;;34.60;;
8488;SDS011;4281;45.772;12.852;2022-07-23T07:12:40;36.10;;;32.60;;
8488;SDS011;4281;45.772;12.852;2022-07-23T07:15:09;36.27;;;32.80;;
8488;SDS011;4281;45.772;12.852;2022-07-23T07:17:37;35.20;;;31.90;;
8488;SDS011;4281;45.772;12.852;2022-07-23T07:20:10;31.87;;;29.20;;
8488;SDS011;4281;45.772;12.852;2022-07-23T07:22:39;33.20;;;30.20;;
8488;SDS011;4281;45.772;12.852;2022-07-23T07:25:07;33.20;;;30.27;;
8488;SDS011;4281;45.772;12.852;2022-07-23T07:27:36;33.50;;;30.53;;
8488;SDS011;4281;45.772;12.852;2022-07-23T07:30:05;29.33;;;26.80;;
8488;SDS011;4281;45.772;12.852;2022-07-23T07:32:35;31.37;;;28.77;;
8488;SDS011;4281;45.772;12.852;2022-07-23T07:35:23;27.77;;;25.27;;
8488;SDS011;4281;45.772;12.852;2022-07-23T07:37:52;28.27;;;25.60;;
8488;SDS011;4281;45.772;12.852;2022-07-23T07:40:21;26.33;;;24.03;;
8488;SDS011;4281;45.772;12.852;2022-07-23T07:42:55;32.83;;;25.00;;
8488;SDS011;4281;45.772;12.852;2022-07-23T07:45:24;26.30;;;23.70;;
8488;SDS011;4281;45.772;12.852;2022-07-23T07:47:53;23.60;;;21.37;;
8488;SDS011;4281;45.772;12.852;2022-07-23T07:50:21;23.37;;;21.27;;
8488;SDS011;4281;45.772;12.852;2022-07-23T07:52:52;22.53;;;20.43;;
8488;SDS011;4281;45.772;12.852;2022-07-23T07:55:21;21.80;;;19.77;;
8488;SDS011;4281;45.772;12.852;2022-07-23T07:57:49;20.73;;;18.83;;
8488;SDS011;4281;45.772;12.852;2022-07-23T08:00:18;20.30;;;18.67;;
8488;SDS011;4281;45.772;12.852;2022-07-23T08:02:47;19.80;;;18.03;;
8488;SDS011;4281;45.772;12.852;2022-07-23T08:05:18;19.57;;;17.87;;
8488;SDS011;4281;45.772;12.852;2022-07-23T08:07:54;19.93;;;17.97;;
8488;SDS011;4281;45.772;12.852;2022-07-23T08:10:23;19.53;;;17.53;;
8488;SDS011;4281;45.772;12.852;2022-07-23T08:12:52;20.80;;;18.73;;
8488;SDS011;4281;45.772;12.852;2022-07-23T08:15:23;21.17;;;19.20;;
8488;SDS011;4281;45.772;12.852;2022-07-23T08:17:53;20.17;;;18.43;;
8488;SDS011;4281;45.772;12.852;2022-07-23T08:20:22;20.27;;;18.40;;
8488;SDS011;4281;45.772;12.852;2022-07-23T08:22:56;20.47;;;18.73;;
8488;SDS011;4281;45.772;12.852;2022-07-23T08:25:27;20.57;;;18.67;;
8488;SDS011;4281;45.772;12.852;2022-07-23T08:27:57;19.33;;;17.73;;
8488;SDS011;4281;45.772;12.852;2022-07-23T08:30:27;18.50;;;16.97;;
8488;SDS011;4281;45.772;12.852;2022-07-23T08:32:57;20.10;;;18.53;;
8488;SDS011;4281;45.772;12.852;2022-07-23T08:35:28;18.53;;;17.00;;
8488;SDS011;4281;45.772;12.852;2022-07-23T08:37:59;18.43;;;16.90;;
8488;SDS011;4281;45.772;12.852;2022-07-23T08:40:31;18.67;;;16.97;;
8488;SDS011;4281;45.772;12.852;2022-07-23T08:43:06;20.10;;;18.37;;
8488;SDS011;4281;45.772;12.852;2022-07-23T08:45:37;18.20;;;16.30;;
8488;SDS011;4281;45.772;12.852;2022-07-23T08:48:07;18.97;;;17.20;;
8488;SDS011;4281;45.772;12.852;2022-07-23T08:50:39;18.10;;;16.70;;
8488;SDS011;4281;45.772;12.852;2022-07-23T08:53:12;17.70;;;16.00;;
8488;SDS011;4281;45.772;12.852;2022-07-23T08:55:43;17.90;;;16.10;;
8488;SDS011;4281;45.772;12.852;2022-07-23T08:58:12;16.57;;;15.07;;
8488;SDS011;4281;45.772;12.852;2022-07-23T09:00:41;16.20;;;14.90;;
8488;SDS011;4281;45.772;12.852;2022-07-23T09:03:12;18.50;;;14.30;;
8488;SDS011;4281;45.772;12.852;2022-07-23T09:05:43;18.67;;;16.97;;
8488;SDS011;4281;45.772;12.852;2022-07-23T09:08:15;17.57;;;15.97;;
8488;SDS011;4281;45.772;12.852;2022-07-23T09:10:45;16.03;;;14.63;;
8488;SDS011;4281;45.772;12.852;2022-07-23T09:13:23;15.53;;;14.00;;
8488;SDS011;4281;45.772;12.852;2022-07-23T09:15:58;13.90;;;12.80;;
8488;SDS011;4281;45.772;12.852;2022-07-23T09:18:29;14.60;;;13.23;;
8488;SDS011;4281;45.772;12.852;2022-07-23T09:21:09;13.17;;;12.07;;
8488;SDS011;4281;45.772;12.852;2022-07-23T09:23:44;14.03;;;12.73;;
8488;SDS011;4281;45.772;12.852;2022-07-23T09:26:25;14.50;;;13.30;;
8488;SDS011;4281;45.772;12.852;2022-07-23T09:29:04;14.60;;;13.30;;
8488;SDS011;4281;45.772;12.852;2022-07-23T09:31:46;16.30;;;15.00;;
8488;SDS011;4281;45.772;12.852;2022-07-23T09:34:19;15.80;;;14.57;;
8488;SDS011;4281;45.772;12.852;2022-07-23T09:36:50;15.37;;;13.87;;
8488;SDS011;4281;45.772;12.852;2022-07-23T09:39:29;14.63;;;13.47;;
8488;SDS011;4281;45.772;12.852;2022-07-23T09:42:12;14.57;;;13.33;;
8488;SDS011;4281;45.772;12.852;2022-07-23T09:44:41;14.45;;;13.25;;
8488;SDS011;4281;45.772;12.852;2022-07-23T09:49:57;13.57;;;12.47;;
8488;SDS011;4281;45.772;12.852;2022-07-23T09:52:28;14.67;;;13.47;;
8488;SDS011;4281;45.772;12.852;2022-07-23T09:55:03;14.53;;;13.17;;
8488;SDS011;4281;45.772;12.852;2022-07-23T09:57:33;14.35;;;13.18;;
8488;SDS011;4281;45.772;12.852;2022-07-23T10:00:03;15.33;;;13.90;;
8488;SDS011;4281;45.772;12.852;2022-07-23T10:02:34;14.17;;;13.07;;
8488;SDS011;4281;45.772;12.852;2022-07-23T10:05:04;15.00;;;13.70;;
8488;SDS011;4281;45.772;12.852;2022-07-23T10:07:34;15.20;;;14.00;;
8488;SDS011;4281;45.772;12.852;2022-07-23T10:10:09;14.68;;;13.48;;
8488;SDS011;4281;45.772;12.852;2022-07-23T10:12:39;15.20;;;13.87;;
8488;SDS011;4281;45.772;12.852;2022-07-23T10:15:27;14.55;;;13.45;;
8488;SDS011;4281;45.772;12.852;2022-07-23T10:17:56;14.00;;;12.90;;
8488;SDS011;4281;45.772;12.852;2022-07-23T10:20:24;13.98;;;12.88;;
8488;SDS011;4281;45.772;12.852;2022-07-23T10:22:55;15.73;;;13.47;;
8488;SDS011;4281;45.772;12.852;2022-07-23T10:25:32;13.90;;;12.70;;
8488;SDS011;4281;45.772;12.852;2022-07-23T10:28:11;14.20;;;13.05;;
8488;SDS011;4281;45.772;12.852;2022-07-23T10:30:51;13.73;;;12.70;;
8488;SDS011;4281;45.772;12.852;2022-07-23T10:33:32;13.17;;;12.13;;
8488;SDS011;4281;45.772;12.852;2022-07-23T10:36:17;14.02;;;12.77;;
8488;SDS011;4281;45.772;12.852;2022-07-23T10:38:51;13.98;;;12.77;;
8488;SDS011;4281;45.772;12.852;2022-07-23T10:41:34;13.13;;;12.13;;
8488;SDS011;4281;45.772;12.852;2022-07-23T10:44:05;13.82;;;12.70;;
8488;SDS011;4281;45.772;12.852;2022-07-23T10:46:35;14.23;;;12.80;;
8488;SDS011;4281;45.772;12.852;2022-07-23T10:49:50;13.15;;;12.23;;
8488;SDS011;4281;45.772;12.852;2022-07-23T10:52:21;14.75;;;13.65;;
8488;SDS011;4281;45.772;12.852;2022-07-23T10:54:52;13.88;;;12.75;;
8488;SDS011;4281;45.772;12.852;2022-07-23T10:57:23;14.32;;;13.20;;
8488;SDS011;4281;45.772;12.852;2022-07-23T11:02:44;14.73;;;13.43;;
8488;SDS011;4281;45.772;12.852;2022-07-23T11:05:14;15.00;;;13.55;;
8488;SDS011;4281;45.772;12.852;2022-07-23T11:10:52;16.50;;;15.00;;
8488;SDS011;4281;45.772;12.852;2022-07-23T11:13:28;16.08;;;14.77;;
8488;SDS011;4281;45.772;12.852;2022-07-23T11:16:05;15.32;;;14.13;;
8488;SDS011;4281;45.772;12.852;2022-07-23T11:18:52;18.23;;;16.63;;
8488;SDS011;4281;45.772;12.852;2022-07-23T11:21:48;15.95;;;14.65;;
8488;SDS011;4281;45.772;12.852;2022-07-23T11:24:18;14.75;;;13.55;;
8488;SDS011;4281;45.772;12.852;2022-07-23T11:26:53;13.82;;;12.68;;
8488;SDS011;4281;45.772;12.852;2022-07-23T11:29:40;16.02;;;14.63;;
8488;SDS011;4281;45.772;12.852;2022-07-23T11:35:25;18.23;;;16.85;;
8488;SDS011;4281;45.772;12.852;2022-07-23T11:38:02;32.05;;;29.02;;
8488;SDS011;4281;45.772;12.852;2022-07-23T11:40:33;33.95;;;31.40;;
8488;SDS011;4281;45.772;12.852;2022-07-23T11:43:03;42.60;;;39.00;;
8488;SDS011;4281;45.772;12.852;2022-07-23T11:45:37;36.28;;;33.20;;
8488;SDS011;4281;45.772;12.852;2022-07-23T11:48:08;35.95;;;33.28;;
8488;SDS011;4281;45.772;12.852;2022-07-23T11:50:37;40.05;;;36.60;;
8488;SDS011;4281;45.772;12.852;2022-07-23T11:53:06;42.13;;;38.42;;
8488;SDS011;4281;45.772;12.852;2022-07-23T11:55:34;42.17;;;38.97;;
8488;SDS011;4281;45.772;12.852;2022-07-23T11:58:03;44.90;;;41.38;;
8488;SDS011;4281;45.772;12.852;2022-07-23T12:00:32;44.42;;;40.88;;
8488;SDS011;4281;45.772;12.852;2022-07-23T12:03:07;43.33;;;39.78;;
8488;SDS011;4281;45.772;12.852;2022-07-23T12:05:37;43.70;;;40.20;;
8488;SDS011;4281;45.772;12.852;2022-07-23T12:08:06;41.45;;;37.70;;
8488;SDS011;4281;45.772;12.852;2022-07-23T12:10:37;39.45;;;36.28;;
8488;SDS011;4281;45.772;12.852;2022-07-23T12:13:09;39.50;;;36.33;;
8488;SDS011;4281;45.772;12.852;2022-07-23T12:15:39;40.38;;;36.97;;
8488;SDS011;4281;45.772;12.852;2022-07-23T12:18:11;39.55;;;36.35;;
8488;SDS011;4281;45.772;12.852;2022-07-23T12:20:42;37.80;;;34.90;;
8488;SDS011;4281;45.772;12.852;2022-07-23T12:23:13;36.53;;;33.35;;
8488;SDS011;4281;45.772;12.852;2022-07-23T12:25:47;35.22;;;32.63;;
8488;SDS011;4281;45.772;12.852;2022-07-23T12:28:17;36.20;;;33.03;;
8488;SDS011;4281;45.772;12.852;2022-07-23T12:30:47;34.20;;;31.30;;
8488;SDS011;4281;45.772;12.852;2022-07-23T12:33:23;35.13;;;32.40;;
8488;SDS011;4281;45.772;12.852;2022-07-23T12:35:53;35.38;;;32.33;;
8488;SDS011;4281;45.772;12.852;2022-07-23T12:38:24;32.92;;;30.52;;
8488;SDS011;4281;45.772;12.852;2022-07-23T12:40:54;31.67;;;29.23;;
8488;SDS011;4281;45.772;12.852;2022-07-23T12:43:26;35.85;;;33.15;;
8488;SDS011;4281;45.772;12.852;2022-07-23T12:46:00;35.22;;;32.47;;
8488;SDS011;4281;45.772;12.852;2022-07-23T12:48:32;32.65;;;30.13;;
8488;SDS011;4281;45.772;12.852;2022-07-23T12:51:04;33.55;;;30.92;;
8488;SDS011;4281;45.772;12.852;2022-07-23T12:53:37;31.58;;;29.10;;
8488;SDS011;4281;45.772;12.852;2022-07-23T12:56:10;31.92;;;29.33;;
8488;SDS011;4281;45.772;12.852;2022-07-23T12:58:43;28.83;;;26.67;;
8488;SDS011;4281;45.772;12.852;2022-07-23T13:01:29;30.67;;;28.13;;
8488;SDS011;4281;45.772;12.852;2022-07-23T13:04:04;30.15;;;27.67;;
8488;SDS011;4281;45.772;12.852;2022-07-23T13:06:40;28.25;;;26.13;;
8488;SDS011;4281;45.772;12.852;2022-07-23T13:09:11;26.45;;;24.35;;
8488;SDS011;4281;45.772;12.852;2022-07-23T13:11:41;26.13;;;24.15;;
8488;SDS011;4281;45.772;12.852;2022-07-23T13:14:13;24.23;;;22.38;;
8488;SDS011;4281;45.772;12.852;2022-07-23T13:16:43;22.30;;;20.30;;
8488;SDS011;4281;45.772;12.852;2022-07-23T13:19:15;24.05;;;22.00;;
8488;SDS011;4281;45.772;12.852;2022-07-23T13:21:44;19.15;;;17.70;;
8488;SDS011;4281;45.772;12.852;2022-07-23T13:24:13;16.85;;;15.48;;
8488;SDS011;4281;45.772;12.852;2022-07-23T13:26:42;16.88;;;15.55;;
8488;SDS011;4281;45.772;12.852;2022-07-23T13:29:13;14.38;;;13.27;;
8488;SDS011;4281;45.772;12.852;2022-07-23T13:31:43;13.35;;;12.30;;
8488;SDS011;4281;45.772;12.852;2022-07-23T13:34:11;13.25;;;12.23;;
8488;SDS011;4281;45.772;12.852;2022-07-23T13:36:42;12.43;;;11.43;;
8488;SDS011;4281;45.772;12.852;2022-07-23T13:39:11;11.15;;;10.25;;
8488;SDS011;4281;45.772;12.852;2022-07-23T13:41:40;9.23;;;8.52;;
8488;SDS011;4281;45.772;12.852;2022-07-23T13:44:28;9.48;;;8.60;;
8488;SDS011;4281;45.772;12.852;2022-07-23T13:46:57;9.40;;;8.60;;
8488;SDS011;4281;45.772;12.852;2022-07-23T13:49:26;8.73;;;7.97;;
8488;SDS011;4281;45.772;12.852;2022-07-23T13:51:56;7.32;;;6.68;;
8488;SDS011;4281;45.772;12.852;2022-07-23T13:54:25;11.80;;;7.90;;
8488;SDS011;4281;45.772;12.852;2022-07-23T13:56:54;6.47;;;5.70;;
8488;SDS011;4281;45.772;12.852;2022-07-23T13:59:23;6.35;;;5.85;;
8488;SDS011;4281;45.772;12.852;2022-07-23T14:01:52;7.03;;;6.43;;
8488;SDS011;4281;45.772;12.852;2022-07-23T14:04:41;6.90;;;6.40;;
8488;SDS011;4281;45.772;12.852;2022-07-23T14:07:11;6.88;;;6.35;;
8488;SDS011;4281;45.772;12.852;2022-07-23T14:09:39;6.35;;;5.88;;
8488;SDS011;4281;45.772;12.852;2022-07-23T14:12:08;7.22;;;6.63;;
8488;SDS011;4281;45.772;12.852;2022-07-23T14:14:37;7.55;;;6.90;;
8488;SDS011;4281;45.772;12.852;2022-07-23T14:17:06;7.88;;;7.22;;
8488;SDS011;4281;45.772;12.852;2022-07-23T14:19:36;7.53;;;6.93;;
8488;SDS011;4281;45.772;12.852;2022-07-23T14:22:05;8.68;;;7.97;;
8488;SDS011;4281;45.772;12.852;2022-07-23T14:24:36;9.95;;;9.05;;
8488;SDS011;4281;45.772;12.852;2022-07-23T14:27:04;9.77;;;8.80;;
8488;SDS011;4281;45.772;12.852;2022-07-23T14:29:33;7.28;;;6.70;;
8488;SDS011;4281;45.772;12.852;2022-07-23T14:32:03;7.35;;;6.70;;
8488;SDS011;4281;45.772;12.852;2022-07-23T14:34:32;7.15;;;6.45;;
8488;SDS011;4281;45.772;12.852;2022-07-23T14:37:03;7.28;;;6.47;;
8488;SDS011;4281;45.772;12.852;2022-07-23T14:39:32;6.38;;;5.88;;
8488;SDS011;4281;45.772;12.852;2022-07-23T14:42:03;6.22;;;5.68;;
8488;SDS011;4281;45.772;12.852;2022-07-23T14:44:32;5.60;;;5.03;;
8488;SDS011;4281;45.772;12.852;2022-07-23T14:47:02;5.63;;;4.50;;
8488;SDS011;4281;45.772;12.852;2022-07-23T14:49:32;5.55;;;4.70;;
8488;SDS011;4281;45.772;12.852;2022-07-23T14:52:02;4.72;;;4.20;;
8488;SDS011;4281;45.772;12.852;2022-07-23T14:54:32;4.50;;;4.10;;
8488;SDS011;4281;45.772;12.852;2022-07-23T14:57:03;4.10;;;3.70;;
8488;SDS011;4281;45.772;12.852;2022-07-23T14:59:36;4.53;;;4.13;;
8488;SDS011;4281;45.772;12.852;2022-07-23T15:02:06;5.40;;;3.70;;
8488;SDS011;4281;45.772;12.852;2022-07-23T15:04:34;5.45;;;3.92;;
8488;SDS011;4281;45.772;12.852;2022-07-23T15:07:04;5.38;;;3.70;;
8488;SDS011;4281;45.772;12.852;2022-07-23T15:09:35;6.35;;;4.15;;
8488;SDS011;4281;45.772;12.852;2022-07-23T15:12:05;4.35;;;3.40;;
8488;SDS011;4281;45.772;12.852;2022-07-23T15:14:38;4.35;;;3.95;;
8488;SDS011;4281;45.772;12.852;2022-07-23T15:17:06;3.92;;;3.60;;
8488;SDS011;4281;45.772;12.852;2022-07-23T15:19:36;5.47;;;3.90;;
8488;SDS011;4281;45.772;12.852;2022-07-23T15:22:04;6.20;;;3.90;;
8488;SDS011;4281;45.772;12.852;2022-07-23T15:24:33;4.38;;;4.05;;
8488;SDS011;4281;45.772;12.852;2022-07-23T15:27:02;4.20;;;3.90;;
8488;SDS011;4281;45.772;12.852;2022-07-23T15:29:33;5.00;;;4.35;;
8488;SDS011;4281;45.772;12.852;2022-07-23T15:32:01;5.00;;;4.10;;
8488;SDS011;4281;45.772;12.852;2022-07-23T15:34:30;4.78;;;4.35;;
8488;SDS011;4281;45.772;12.852;2022-07-23T15:36:59;5.57;;;4.32;;
8488;SDS011;4281;45.772;12.852;2022-07-23T15:39:37;6.40;;;4.32;;
8488;SDS011;4281;45.772;12.852;2022-07-23T15:42:08;4.85;;;4.20;;
8488;SDS011;4281;45.772;12.852;2022-07-23T15:44:40;6.45;;;3.97;;
8488;SDS011;4281;45.772;12.852;2022-07-23T15:47:11;4.50;;;3.97;;
8488;SDS011;4281;45.772;12.852;2022-07-23T15:49:41;5.18;;;4.63;;
8488;SDS011;4281;45.772;12.852;2022-07-23T15:52:09;4.70;;;4.03;;
8488;SDS011;4281;45.772;12.852;2022-07-23T15:54:39;5.55;;;3.70;;
8488;SDS011;4281;45.772;12.852;2022-07-23T15:57:10;4.30;;;3.90;;
8488;SDS011;4281;45.772;12.852;2022-07-23T15:59:39;7.07;;;4.50;;
8488;SDS011;4281;45.772;12.852;2022-07-23T16:02:08;5.03;;;4.43;;
8488;SDS011;4281;45.772;12.852;2022-07-23T16:04:38;6.03;;;4.75;;
8488;SDS011;4281;45.772;12.852;2022-07-23T16:07:06;5.80;;;5.05;;
8488;SDS011;4281;45.772;12.852;2022-07-23T16:09:36;5.75;;;5.22;;
8488;SDS011;4281;45.772;12.852;2022-07-23T16:12:05;6.70;;;4.50;;
8488;SDS011;4281;45.772;12.852;2022-07-23T16:14:35;4.80;;;4.30;;
8488;SDS011;4281;45.772;12.852;2022-07-23T16:17:05;5.10;;;4.70;;
8488;SDS011;4281;45.772;12.852;2022-07-23T16:19:34;7.95;;;4.38;;
8488;SDS011;4281;45.772;12.852;2022-07-23T16:22:02;4.47;;;4.07;;
8488;SDS011;4281;45.772;12.852;2022-07-23T16:24:31;6.00;;;4.95;;
8488;SDS011;4281;45.772;12.852;2022-07-23T16:26:59;4.93;;;4.20;;
8488;SDS011;4281;45.772;12.852;2022-07-23T16:29:31;4.70;;;4.30;;
8488;SDS011;4281;45.772;12.852;2022-07-23T16:32:01;5.05;;;4.38;;
8488;SDS011;4281;45.772;12.852;2022-07-23T16:34:30;4.82;;;3.72;;
8488;SDS011;4281;45.772;12.852;2022-07-23T16:36:59;5.00;;;4.50;;
8488;SDS011;4281;45.772;12.852;2022-07-23T16:39:27;5.03;;;4.45;;
8488;SDS011;4281;45.772;12.852;2022-07-23T16:41:56;6.20;;;4.38;;
8488;SDS011;4281;45.772;12.852;2022-07-23T16:44:24;6.43;;;4.70;;
8488;SDS011;4281;45.772;12.852;2022-07-23T16:46:53;5.18;;;4.68;;
8488;SDS011;4281;45.772;12.852;2022-07-23T16:49:22;4.95;;;4.45;;
8488;SDS011;4281;45.772;12.852;2022-07-23T16:51:51;5.53;;;4.53;;
8488;SDS011;4281;45.772;12.852;2022-07-23T16:54:19;6.25;;;4.78;;
8488;SDS011;4281;45.772;12.852;2022-07-23T16:56:48;5.32;;;4.88;;
8488;SDS011;4281;45.772;12.852;2022-07-23T16:59:17;5.40;;;5.00;;
8488;SDS011;4281;45.772;12.852;2022-07-23T17:01:45;8.17;;;4.70;;
8488;SDS011;4281;45.772;12.852;2022-07-23T17:04:14;6.27;;;4.80;;
8488;SDS011;4281;45.772;12.852;2022-07-23T17:06:44;7.57;;;4.90;;
8488;SDS011;4281;45.772;12.852;2022-07-23T17:09:12;6.28;;;5.28;;
8488;SDS011;4281;45.772;12.852;2022-07-23T17:11:41;6.10;;;5.03;;
8488;SDS011;4281;45.772;12.852;2022-07-23T17:14:10;5.40;;;4.90;;
8488;SDS011;4281;45.772;12.852;2022-07-23T17:16:41;6.37;;;4.67;;
8488;SDS011;4281;45.772;12.852;2022-07-23T17:19:09;6.00;;;5.20;;
8488;SDS011;4281;45.772;12.852;2022-07-23T17:21:38;5.30;;;4.70;;
8488;SDS011;4281;45.772;12.852;2022-07-23T17:24:08;7.33;;;4.40;;
8488;SDS011;4281;45.772;12.852;2022-07-23T17:26:36;5.50;;;4.20;;
8488;SDS011;4281;45.772;12.852;2022-07-23T17:29:09;5.33;;;4.90;;
8488;SDS011;4281;45.772;12.852;2022-07-23T17:31:37;5.97;;;5.40;;
8488;SDS011;4281;45.772;12.852;2022-07-23T17:34:06;7.43;;;5.78;;
8488;SDS011;4281;45.772;12.852;2022-07-23T17:36:35;7.07;;;5.47;;
8488;SDS011;4281;45.772;12.852;2022-07-23T17:39:04;5.82;;;4.05;;
8488;SDS011;4281;45.772;12.852;2022-07-23T17:41:35;7.93;;;4.13;;
8488;SDS011;4281;45.772;12.852;2022-07-23T17:44:04;3.37;;;3.00;;
8488;SDS011;4281;45.772;12.852;2022-07-23T17:46:32;3.77;;;3.00;;
8488;SDS011;4281;45.772;12.852;2022-07-23T17:49:01;3.67;;;2.87;;
8488;SDS011;4281;45.772;12.852;2022-07-23T17:51:30;3.97;;;2.50;;
8488;SDS011;4281;45.772;12.852;2022-07-23T17:53:59;5.23;;;3.20;;
8488;SDS011;4281;45.772;12.852;2022-07-23T17:56:28;4.83;;;3.37;;
8488;SDS011;4281;45.772;12.852;2022-07-23T17:58:57;3.27;;;2.97;;
8488;SDS011;4281;45.772;12.852;2022-07-23T18:01:26;3.63;;;3.17;;
8488;SDS011;4281;45.772;12.852;2022-07-23T18:03:56;3.53;;;2.87;;
8488;SDS011;4281;45.772;12.852;2022-07-23T18:06:25;4.53;;;3.03;;
8488;SDS011;4281;45.772;12.852;2022-07-23T18:08:53;4.90;;;2.63;;
8488;SDS011;4281;45.772;12.852;2022-07-23T18:11:22;4.93;;;2.83;;
8488;SDS011;4281;45.772;12.852;2022-07-23T18:13:53;3.53;;;2.63;;
8488;SDS011;4281;45.772;12.852;2022-07-23T18:16:25;4.67;;;3.23;;
8488;SDS011;4281;45.772;12.852;2022-07-23T18:18:53;3.70;;;2.73;;
8488;SDS011;4281;45.772;12.852;2022-07-23T18:21:22;3.33;;;2.80;;
8488;SDS011;4281;45.772;12.852;2022-07-23T18:23:50;4.33;;;2.87;;
8488;SDS011;4281;45.772;12.852;2022-07-23T18:26:19;3.20;;;2.90;;
8488;SDS011;4281;45.772;12.852;2022-07-23T18:28:48;3.67;;;2.90;;
8488;SDS011;4281;45.772;12.852;2022-07-23T18:31:16;4.20;;;3.20;;
8488;SDS011;4281;45.772;12.852;2022-07-23T18:33:46;3.10;;;2.83;;
8488;SDS011;4281;45.772;12.852;2022-07-23T18:36:15;4.40;;;2.83;;
8488;SDS011;4281;45.772;12.852;2022-07-23T18:38:44;3.50;;;3.20;;
8488;SDS011;4281;45.772;12.852;2022-07-23T18:41:20;3.73;;;3.33;;
8488;SDS011;4281;45.772;12.852;2022-07-23T18:43:50;4.23;;;3.27;;
8488;SDS011;4281;45.772;12.852;2022-07-23T18:46:19;5.17;;;3.30;;
8488;SDS011;4281;45.772;12.852;2022-07-23T18:48:49;5.73;;;3.33;;
8488;SDS011;4281;45.772;12.852;2022-07-23T18:51:17;4.30;;;3.03;;
8488;SDS011;4281;45.772;12.852;2022-07-23T18:53:46;3.60;;;2.97;;